sensor_id;sensor_type;location;lat;lon;timestamp;P1;durP1;ratioP1;P2;durP2;ratioP2
11964;SDS011;6042;41.326;19.826;2023-06-04T00:01:36;6.03;;;3.90;;
11964;SDS011;6042;41.326;19.826;2023-06-04T00:04:05;11.50;;;3.63;;
11964;SDS011;6042;41.326;19.826;2023-06-04T00:06:34;5.40;;;3.87;;
11964;SDS011;6042;41.326;19.826;2023-06-04T00:09:02;7.03;;;3.77;;
11964;SDS011;6042;41.326;19.826;2023-06-04T00:11:31;3.87;;;3.47;;
11964;SDS011;6042;41.326;19.826;2023-06-04T00:14:03;3.63;;;3.33;;
11964;SDS011;6042;41.326;19.826;2023-06-04T00:16:31;6.23;;;3.90;;
11964;SDS011;6042;41.326;19.826;2023-06-04T00:19:02;3.67;;;3.20;;
11964;SDS011;6042;41.326;19.826;2023-06-04T00:21:30;5.40;;;3.67;;
11964;SDS011;6042;41.326;19.826;2023-06-04T00:24:00;4.97;;;3.80;;
11964;SDS011;6042;41.326;19.826;2023-06-04T00:26:29;12.33;;;4.17;;
11964;SDS011;6042;41.326;19.826;2023-06-04T00:28:57;10.07;;;4.47;;
11964;SDS011;6042;41.326;19.826;2023-06-04T00:31:27;4.00;;;3.60;;
11964;SDS011;6042;41.326;19.826;2023-06-04T00:33:56;3.97;;;3.57;;
11964;SDS011;6042;41.326;19.826;2023-06-04T00:36:25;5.03;;;3.17;;
11964;SDS011;6042;41.326;19.826;2023-06-04T00:38:53;4.70;;;3.30;;
11964;SDS011;6042;41.326;19.826;2023-06-04T00:41:22;4.10;;;3.70;;
11964;SDS011;6042;41.326;19.826;2023-06-04T00:43:52;4.00;;;3.60;;
11964;SDS011;6042;41.326;19.826;2023-06-04T00:46:23;5.37;;;3.33;;
11964;SDS011;6042;41.326;19.826;2023-06-04T00:48:54;5.67;;;3.73;;
11964;SDS011;6042;41.326;19.826;2023-06-04T00:51:23;5.27;;;3.60;;
11964;SDS011;6042;41.326;19.826;2023-06-04T00:53:53;4.23;;;3.77;;
11964;SDS011;6042;41.326;19.826;2023-06-04T00:56:21;4.17;;;3.50;;
11964;SDS011;6042;41.326;19.826;2023-06-04T00:58:50;4.33;;;3.60;;
11964;SDS011;6042;41.326;19.826;2023-06-04T01:01:25;4.53;;;3.50;;
11964;SDS011;6042;41.326;19.826;2023-06-04T01:04:01;4.60;;;3.47;;
11964;SDS011;6042;41.326;19.826;2023-06-04T01:06:35;3.67;;;3.37;;
11964;SDS011;6042;41.326;19.826;2023-06-04T01:09:06;8.70;;;3.77;;
11964;SDS011;6042;41.326;19.826;2023-06-04T01:11:36;6.97;;;3.73;;
11964;SDS011;6042;41.326;19.826;2023-06-04T01:14:08;4.43;;;3.30;;
11964;SDS011;6042;41.326;19.826;2023-06-04T01:16:39;3.97;;;3.67;;
11964;SDS011;6042;41.326;19.826;2023-06-04T01:19:23;4.30;;;3.30;;
11964;SDS011;6042;41.326;19.826;2023-06-04T01:22:24;3.93;;;3.40;;
11964;SDS011;6042;41.326;19.826;2023-06-04T01:25:03;7.10;;;3.33;;
11964;SDS011;6042;41.326;19.826;2023-06-04T01:27:33;4.10;;;3.63;;
11964;SDS011;6042;41.326;19.826;2023-06-04T01:30:03;3.57;;;3.27;;
11964;SDS011;6042;41.326;19.826;2023-06-04T01:32:32;3.80;;;3.43;;
11964;SDS011;6042;41.326;19.826;2023-06-04T01:35:06;3.37;;;3.00;;
11964;SDS011;6042;41.326;19.826;2023-06-04T01:37:36;5.67;;;3.73;;
11964;SDS011;6042;41.326;19.826;2023-06-04T01:40:05;4.97;;;3.77;;
11964;SDS011;6042;41.326;19.826;2023-06-04T01:42:35;4.87;;;3.57;;
11964;SDS011;6042;41.326;19.826;2023-06-04T01:45:04;5.30;;;4.10;;
11964;SDS011;6042;41.326;19.826;2023-06-04T01:47:33;6.00;;;3.73;;
11964;SDS011;6042;41.326;19.826;2023-06-04T02:03:22;5.13;;;3.87;;
11964;SDS011;6042;41.326;19.826;2023-06-04T02:05:51;3.97;;;3.67;;
11964;SDS011;6042;41.326;19.826;2023-06-04T02:08:21;5.60;;;4.00;;
11964;SDS011;6042;41.326;19.826;2023-06-04T02:10:52;4.83;;;3.70;;
11964;SDS011;6042;41.326;19.826;2023-06-04T02:13:21;3.70;;;3.40;;
11964;SDS011;6042;41.326;19.826;2023-06-04T02:15:49;4.23;;;3.77;;
11964;SDS011;6042;41.326;19.826;2023-06-04T02:18:18;3.80;;;3.50;;
11964;SDS011;6042;41.326;19.826;2023-06-04T02:20:51;4.27;;;3.50;;
11964;SDS011;6042;41.326;19.826;2023-06-04T02:23:20;5.77;;;3.70;;
11964;SDS011;6042;41.326;19.826;2023-06-04T02:25:48;4.00;;;3.70;;
11964;SDS011;6042;41.326;19.826;2023-06-04T02:28:17;4.33;;;3.60;;
11964;SDS011;6042;41.326;19.826;2023-06-04T02:30:46;5.07;;;3.50;;
11964;SDS011;6042;41.326;19.826;2023-06-04T02:33:14;4.10;;;3.80;;
11964;SDS011;6042;41.326;19.826;2023-06-04T02:35:46;3.83;;;3.37;;
11964;SDS011;6042;41.326;19.826;2023-06-04T02:38:16;4.20;;;3.80;;
11964;SDS011;6042;41.326;19.826;2023-06-04T02:40:44;4.33;;;3.93;;
11964;SDS011;6042;41.326;19.826;2023-06-04T02:43:13;4.27;;;3.80;;
11964;SDS011;6042;41.326;19.826;2023-06-04T02:45:42;4.13;;;3.83;;
11964;SDS011;6042;41.326;19.826;2023-06-04T02:48:10;4.27;;;3.93;;
11964;SDS011;6042;41.326;19.826;2023-06-04T02:50:39;3.80;;;3.50;;
11964;SDS011;6042;41.326;19.826;2023-06-04T02:53:09;4.87;;;3.90;;
11964;SDS011;6042;41.326;19.826;2023-06-04T02:55:39;5.03;;;3.70;;
11964;SDS011;6042;41.326;19.826;2023-06-04T02:58:09;4.27;;;3.43;;
11964;SDS011;6042;41.326;19.826;2023-06-04T03:00:37;4.40;;;4.00;;
11964;SDS011;6042;41.326;19.826;2023-06-04T03:03:07;3.83;;;3.53;;
11964;SDS011;6042;41.326;19.826;2023-06-04T03:05:36;8.97;;;4.20;;
11964;SDS011;6042;41.326;19.826;2023-06-04T03:08:06;4.23;;;3.83;;
11964;SDS011;6042;41.326;19.826;2023-06-04T03:10:35;5.03;;;3.70;;
11964;SDS011;6042;41.326;19.826;2023-06-04T03:13:04;4.03;;;3.63;;
11964;SDS011;6042;41.326;19.826;2023-06-04T03:15:33;5.33;;;3.90;;
11964;SDS011;6042;41.326;19.826;2023-06-04T03:18:06;4.50;;;3.97;;
11964;SDS011;6042;41.326;19.826;2023-06-04T03:20:35;4.03;;;3.50;;
11964;SDS011;6042;41.326;19.826;2023-06-04T03:23:05;5.97;;;3.63;;
11964;SDS011;6042;41.326;19.826;2023-06-04T03:25:33;5.67;;;3.73;;
11964;SDS011;6042;41.326;19.826;2023-06-04T03:28:02;4.00;;;3.60;;
11964;SDS011;6042;41.326;19.826;2023-06-04T03:30:33;5.33;;;3.70;;
11964;SDS011;6042;41.326;19.826;2023-06-04T03:33:04;4.00;;;3.50;;
11964;SDS011;6042;41.326;19.826;2023-06-04T03:35:33;4.67;;;3.90;;
11964;SDS011;6042;41.326;19.826;2023-06-04T03:38:02;4.17;;;3.40;;
11964;SDS011;6042;41.326;19.826;2023-06-04T03:40:32;5.27;;;3.83;;
11964;SDS011;6042;41.326;19.826;2023-06-04T03:43:02;6.33;;;4.70;;
11964;SDS011;6042;41.326;19.826;2023-06-04T03:45:33;4.13;;;3.73;;
11964;SDS011;6042;41.326;19.826;2023-06-04T03:48:02;5.03;;;3.97;;
11964;SDS011;6042;41.326;19.826;2023-06-04T03:50:33;4.77;;;3.77;;
11964;SDS011;6042;41.326;19.826;2023-06-04T03:53:02;3.60;;;3.30;;
11964;SDS011;6042;41.326;19.826;2023-06-04T03:55:35;4.13;;;3.83;;
11964;SDS011;6042;41.326;19.826;2023-06-04T03:58:06;3.90;;;3.60;;
11964;SDS011;6042;41.326;19.826;2023-06-04T04:00:44;5.23;;;3.50;;
11964;SDS011;6042;41.326;19.826;2023-06-04T04:03:13;4.20;;;3.80;;
11964;SDS011;6042;41.326;19.826;2023-06-04T04:05:43;6.63;;;4.20;;
11964;SDS011;6042;41.326;19.826;2023-06-04T04:08:11;6.30;;;4.00;;
11964;SDS011;6042;41.326;19.826;2023-06-04T04:10:44;4.13;;;3.60;;
11964;SDS011;6042;41.326;19.826;2023-06-04T04:13:12;4.20;;;3.70;;
11964;SDS011;6042;41.326;19.826;2023-06-04T04:15:41;6.20;;;3.70;;
11964;SDS011;6042;41.326;19.826;2023-06-04T04:18:12;3.77;;;3.40;;
11964;SDS011;6042;41.326;19.826;2023-06-04T04:20:44;4.37;;;3.97;;
11964;SDS011;6042;41.326;19.826;2023-06-04T04:23:13;5.37;;;3.70;;
11964;SDS011;6042;41.326;19.826;2023-06-04T04:25:45;3.87;;;3.47;;
11964;SDS011;6042;41.326;19.826;2023-06-04T04:28:15;4.50;;;4.10;;
11964;SDS011;6042;41.326;19.826;2023-06-04T04:30:46;11.30;;;5.47;;
11964;SDS011;6042;41.326;19.826;2023-06-04T04:33:17;5.03;;;3.93;;
11964;SDS011;6042;41.326;19.826;2023-06-04T04:35:46;6.87;;;4.10;;
11964;SDS011;6042;41.326;19.826;2023-06-04T04:38:19;4.27;;;3.60;;
11964;SDS011;6042;41.326;19.826;2023-06-04T04:40:58;3.93;;;3.53;;
11964;SDS011;6042;41.326;19.826;2023-06-04T04:43:28;10.57;;;3.87;;
11964;SDS011;6042;41.326;19.826;2023-06-04T04:46:01;5.10;;;4.10;;
11964;SDS011;6042;41.326;19.826;2023-06-04T04:48:31;4.40;;;4.00;;
11964;SDS011;6042;41.326;19.826;2023-06-04T04:51:00;5.63;;;3.50;;
11964;SDS011;6042;41.326;19.826;2023-06-04T04:53:29;5.67;;;3.57;;
11964;SDS011;6042;41.326;19.826;2023-06-04T04:55:58;5.00;;;3.70;;
11964;SDS011;6042;41.326;19.826;2023-06-04T04:58:30;14.90;;;5.57;;
11964;SDS011;6042;41.326;19.826;2023-06-04T05:00:59;5.57;;;3.97;;
11964;SDS011;6042;41.326;19.826;2023-06-04T05:03:27;4.33;;;3.73;;
11964;SDS011;6042;41.326;19.826;2023-06-04T05:05:57;4.30;;;3.47;;
11964;SDS011;6042;41.326;19.826;2023-06-04T05:08:26;9.67;;;4.37;;
11964;SDS011;6042;41.326;19.826;2023-06-04T05:10:54;6.20;;;4.20;;
11964;SDS011;6042;41.326;19.826;2023-06-04T05:13:23;4.17;;;3.77;;
11964;SDS011;6042;41.326;19.826;2023-06-04T05:15:57;8.17;;;3.97;;
11964;SDS011;6042;41.326;19.826;2023-06-04T05:18:28;5.83;;;3.80;;
11964;SDS011;6042;41.326;19.826;2023-06-04T05:21:02;6.20;;;3.67;;
11964;SDS011;6042;41.326;19.826;2023-06-04T05:23:36;7.17;;;4.07;;
11964;SDS011;6042;41.326;19.826;2023-06-04T05:26:06;4.00;;;3.43;;
11964;SDS011;6042;41.326;19.826;2023-06-04T05:28:35;4.90;;;4.10;;
11964;SDS011;6042;41.326;19.826;2023-06-04T05:31:03;4.20;;;3.80;;
11964;SDS011;6042;41.326;19.826;2023-06-04T05:33:35;3.80;;;3.40;;
11964;SDS011;6042;41.326;19.826;2023-06-04T05:36:09;4.60;;;3.93;;
11964;SDS011;6042;41.326;19.826;2023-06-04T05:38:46;6.83;;;3.67;;
11964;SDS011;6042;41.326;19.826;2023-06-04T05:41:16;4.40;;;4.00;;
11964;SDS011;6042;41.326;19.826;2023-06-04T05:43:48;4.67;;;3.70;;
11964;SDS011;6042;41.326;19.826;2023-06-04T05:46:17;5.90;;;4.47;;
11964;SDS011;6042;41.326;19.826;2023-06-04T05:48:46;6.33;;;4.23;;
11964;SDS011;6042;41.326;19.826;2023-06-04T05:51:16;8.90;;;5.30;;
11964;SDS011;6042;41.326;19.826;2023-06-04T05:53:47;9.47;;;7.17;;
11964;SDS011;6042;41.326;19.826;2023-06-04T05:56:17;9.63;;;8.30;;
11964;SDS011;6042;41.326;19.826;2023-06-04T05:58:50;10.10;;;9.10;;
11964;SDS011;6042;41.326;19.826;2023-06-04T06:01:21;9.97;;;9.17;;
11964;SDS011;6042;41.326;19.826;2023-06-04T06:03:51;9.60;;;8.70;;
11964;SDS011;6042;41.326;19.826;2023-06-04T06:06:22;11.13;;;9.13;;
11964;SDS011;6042;41.326;19.826;2023-06-04T06:08:54;17.43;;;10.10;;
11964;SDS011;6042;41.326;19.826;2023-06-04T06:11:22;7.47;;;6.77;;
11964;SDS011;6042;41.326;19.826;2023-06-04T06:13:55;9.27;;;8.37;;
11964;SDS011;6042;41.326;19.826;2023-06-04T06:16:24;10.47;;;8.90;;
11964;SDS011;6042;41.326;19.826;2023-06-04T06:18:53;8.57;;;7.40;;
11964;SDS011;6042;41.326;19.826;2023-06-04T06:21:23;9.97;;;6.83;;
11964;SDS011;6042;41.326;19.826;2023-06-04T06:23:52;8.10;;;5.37;;
11964;SDS011;6042;41.326;19.826;2023-06-04T06:26:26;5.53;;;4.93;;
11964;SDS011;6042;41.326;19.826;2023-06-04T06:28:57;5.90;;;5.30;;
11964;SDS011;6042;41.326;19.826;2023-06-04T06:31:30;4.77;;;4.30;;
11964;SDS011;6042;41.326;19.826;2023-06-04T06:33:59;4.80;;;4.20;;
11964;SDS011;6042;41.326;19.826;2023-06-04T06:36:29;6.27;;;4.17;;
11964;SDS011;6042;41.326;19.826;2023-06-04T06:38:59;7.33;;;4.67;;
11964;SDS011;6042;41.326;19.826;2023-06-04T06:41:28;5.37;;;4.80;;
11964;SDS011;6042;41.326;19.826;2023-06-04T06:43:58;6.30;;;4.53;;
11964;SDS011;6042;41.326;19.826;2023-06-04T06:46:27;5.00;;;4.60;;
11964;SDS011;6042;41.326;19.826;2023-06-04T06:48:55;5.07;;;4.57;;
11964;SDS011;6042;41.326;19.826;2023-06-04T06:51:24;6.60;;;4.73;;
11964;SDS011;6042;41.326;19.826;2023-06-04T06:53:54;9.70;;;5.23;;
11964;SDS011;6042;41.326;19.826;2023-06-04T06:56:26;7.70;;;5.23;;
11964;SDS011;6042;41.326;19.826;2023-06-04T06:59:04;9.77;;;5.10;;
11964;SDS011;6042;41.326;19.826;2023-06-04T07:01:32;5.50;;;4.97;;
11964;SDS011;6042;41.326;19.826;2023-06-04T07:04:01;7.27;;;4.80;;
11964;SDS011;6042;41.326;19.826;2023-06-04T07:06:33;5.20;;;4.47;;
11964;SDS011;6042;41.326;19.826;2023-06-04T07:09:04;8.00;;;5.90;;
11964;SDS011;6042;41.326;19.826;2023-06-04T07:11:34;8.40;;;5.70;;
11964;SDS011;6042;41.326;19.826;2023-06-04T07:14:02;8.40;;;5.47;;
11964;SDS011;6042;41.326;19.826;2023-06-04T07:16:31;7.77;;;5.47;;
11964;SDS011;6042;41.326;19.826;2023-06-04T07:19:00;6.00;;;5.37;;
11964;SDS011;6042;41.326;19.826;2023-06-04T07:21:29;6.43;;;5.30;;
11964;SDS011;6042;41.326;19.826;2023-06-04T07:23:58;8.00;;;5.43;;
11964;SDS011;6042;41.326;19.826;2023-06-04T07:26:28;9.37;;;5.27;;
11964;SDS011;6042;41.326;19.826;2023-06-04T07:29:00;7.03;;;5.53;;
11964;SDS011;6042;41.326;19.826;2023-06-04T07:31:28;7.27;;;5.13;;
11964;SDS011;6042;41.326;19.826;2023-06-04T07:33:57;8.63;;;4.90;;
11964;SDS011;6042;41.326;19.826;2023-06-04T07:36:25;8.40;;;6.17;;
11964;SDS011;6042;41.326;19.826;2023-06-04T07:38:56;7.10;;;5.67;;
11964;SDS011;6042;41.326;19.826;2023-06-04T07:41:25;6.97;;;4.93;;
11964;SDS011;6042;41.326;19.826;2023-06-04T07:43:57;8.67;;;5.47;;
11964;SDS011;6042;41.326;19.826;2023-06-04T07:46:26;5.90;;;5.33;;
11964;SDS011;6042;41.326;19.826;2023-06-04T07:48:55;7.63;;;5.70;;
11964;SDS011;6042;41.326;19.826;2023-06-04T07:51:24;7.30;;;5.80;;
11964;SDS011;6042;41.326;19.826;2023-06-04T07:53:53;6.80;;;6.00;;
11964;SDS011;6042;41.326;19.826;2023-06-04T07:56:24;9.97;;;5.80;;
11964;SDS011;6042;41.326;19.826;2023-06-04T07:58:56;7.30;;;5.80;;
11964;SDS011;6042;41.326;19.826;2023-06-04T08:01:25;6.30;;;5.63;;
11964;SDS011;6042;41.326;19.826;2023-06-04T08:03:54;8.67;;;6.00;;
11964;SDS011;6042;41.326;19.826;2023-06-04T08:06:25;6.87;;;5.50;;
11964;SDS011;6042;41.326;19.826;2023-06-04T08:08:54;5.13;;;4.63;;
11964;SDS011;6042;41.326;19.826;2023-06-04T08:11:22;6.13;;;4.70;;
11964;SDS011;6042;41.326;19.826;2023-06-04T08:13:51;5.30;;;4.80;;
11964;SDS011;6042;41.326;19.826;2023-06-04T08:16:21;6.13;;;4.67;;
11964;SDS011;6042;41.326;19.826;2023-06-04T08:18:49;5.23;;;4.70;;
11964;SDS011;6042;41.326;19.826;2023-06-04T08:21:24;6.77;;;4.90;;
11964;SDS011;6042;41.326;19.826;2023-06-04T08:23:53;5.27;;;4.77;;
11964;SDS011;6042;41.326;19.826;2023-06-04T08:26:22;4.90;;;4.50;;
11964;SDS011;6042;41.326;19.826;2023-06-04T08:28:51;6.73;;;4.80;;
11964;SDS011;6042;41.326;19.826;2023-06-04T08:31:21;6.17;;;4.30;;
11964;SDS011;6042;41.326;19.826;2023-06-04T08:33:50;5.23;;;4.27;;
11964;SDS011;6042;41.326;19.826;2023-06-04T08:36:18;6.03;;;4.47;;
11964;SDS011;6042;41.326;19.826;2023-06-04T08:38:50;8.80;;;5.37;;
11964;SDS011;6042;41.326;19.826;2023-06-04T08:41:22;4.50;;;4.10;;
11964;SDS011;6042;41.326;19.826;2023-06-04T08:43:53;5.93;;;4.37;;
11964;SDS011;6042;41.326;19.826;2023-06-04T08:46:28;6.27;;;4.57;;
11964;SDS011;6042;41.326;19.826;2023-06-04T08:49:00;6.67;;;4.90;;
11964;SDS011;6042;41.326;19.826;2023-06-04T08:51:31;6.63;;;5.80;;
11964;SDS011;6042;41.326;19.826;2023-06-04T08:54:04;5.83;;;5.33;;
11964;SDS011;6042;41.326;19.826;2023-06-04T08:56:34;5.70;;;5.17;;
11964;SDS011;6042;41.326;19.826;2023-06-04T08:59:04;5.90;;;5.30;;
11964;SDS011;6042;41.326;19.826;2023-06-04T09:01:36;7.80;;;5.10;;
11964;SDS011;6042;41.326;19.826;2023-06-04T09:04:05;7.67;;;5.50;;
11964;SDS011;6042;41.326;19.826;2023-06-04T09:06:39;6.20;;;5.37;;
11964;SDS011;6042;41.326;19.826;2023-06-04T09:09:08;7.83;;;4.80;;
11964;SDS011;6042;41.326;19.826;2023-06-04T09:11:41;6.80;;;4.27;;
11964;SDS011;6042;41.326;19.826;2023-06-04T09:14:14;4.33;;;3.93;;
11964;SDS011;6042;41.326;19.826;2023-06-04T09:16:46;7.23;;;4.50;;
11964;SDS011;6042;41.326;19.826;2023-06-04T09:19:16;4.50;;;3.97;;
11964;SDS011;6042;41.326;19.826;2023-06-04T09:21:46;4.77;;;4.27;;
11964;SDS011;6042;41.326;19.826;2023-06-04T09:24:16;5.37;;;4.40;;
11964;SDS011;6042;41.326;19.826;2023-06-04T09:26:45;8.63;;;4.67;;
11964;SDS011;6042;41.326;19.826;2023-06-04T09:29:13;6.10;;;4.67;;
11964;SDS011;6042;41.326;19.826;2023-06-04T09:31:45;5.13;;;4.50;;
11964;SDS011;6042;41.326;19.826;2023-06-04T09:34:15;5.43;;;4.40;;
11964;SDS011;6042;41.326;19.826;2023-06-04T09:36:43;4.90;;;4.40;;
11964;SDS011;6042;41.326;19.826;2023-06-04T09:39:16;4.93;;;4.53;;
11964;SDS011;6042;41.326;19.826;2023-06-04T09:41:45;4.77;;;4.37;;
11964;SDS011;6042;41.326;19.826;2023-06-04T09:44:26;4.90;;;4.50;;
11964;SDS011;6042;41.326;19.826;2023-06-04T09:47:00;4.53;;;4.07;;
11964;SDS011;6042;41.326;19.826;2023-06-04T09:49:39;4.67;;;4.33;;
11964;SDS011;6042;41.326;19.826;2023-06-04T09:52:08;5.80;;;5.20;;
11964;SDS011;6042;41.326;19.826;2023-06-04T09:54:37;6.53;;;5.27;;
11964;SDS011;6042;41.326;19.826;2023-06-04T09:57:13;5.07;;;4.60;;
11964;SDS011;6042;41.326;19.826;2023-06-04T09:59:44;5.10;;;4.60;;
11964;SDS011;6042;41.326;19.826;2023-06-04T10:02:17;4.57;;;4.10;;
11964;SDS011;6042;41.326;19.826;2023-06-04T10:04:49;5.17;;;4.40;;
11964;SDS011;6042;41.326;19.826;2023-06-04T10:07:23;5.30;;;3.70;;
11964;SDS011;6042;41.326;19.826;2023-06-04T10:09:53;4.87;;;3.77;;
11964;SDS011;6042;41.326;19.826;2023-06-04T10:12:23;5.33;;;4.03;;
11964;SDS011;6042;41.326;19.826;2023-06-04T10:14:58;3.40;;;3.20;;
11964;SDS011;6042;41.326;19.826;2023-06-04T10:17:31;4.20;;;3.80;;
11964;SDS011;6042;41.326;19.826;2023-06-04T10:20:01;4.90;;;4.50;;
11964;SDS011;6042;41.326;19.826;2023-06-04T10:22:32;6.27;;;3.70;;
11964;SDS011;6042;41.326;19.826;2023-06-04T10:25:01;3.27;;;3.00;;
11964;SDS011;6042;41.326;19.826;2023-06-04T10:27:31;3.07;;;2.80;;
11964;SDS011;6042;41.326;19.826;2023-06-04T10:30:01;3.13;;;2.80;;
11964;SDS011;6042;41.326;19.826;2023-06-04T10:32:32;3.27;;;2.97;;
11964;SDS011;6042;41.326;19.826;2023-06-04T10:35:03;4.60;;;4.20;;
11964;SDS011;6042;41.326;19.826;2023-06-04T10:37:36;7.30;;;4.55;;
11964;SDS011;6042;41.326;19.826;2023-06-04T10:40:05;3.33;;;3.03;;
11964;SDS011;6042;41.326;19.826;2023-06-04T10:42:38;3.40;;;3.10;;
11964;SDS011;6042;41.326;19.826;2023-06-04T10:45:09;5.47;;;3.47;;
11964;SDS011;6042;41.326;19.826;2023-06-04T10:47:40;3.45;;;3.15;;
11964;SDS011;6042;41.326;19.826;2023-06-04T10:50:13;4.75;;;4.15;;
11964;SDS011;6042;41.326;19.826;2023-06-04T10:52:50;3.47;;;3.17;;
11964;SDS011;6042;41.326;19.826;2023-06-04T10:55:19;5.00;;;3.58;;
11964;SDS011;6042;41.326;19.826;2023-06-04T10:57:52;5.97;;;3.30;;
11964;SDS011;6042;41.326;19.826;2023-06-04T11:00:34;3.58;;;3.28;;
11964;SDS011;6042;41.326;19.826;2023-06-04T11:03:05;3.42;;;3.10;;
11964;SDS011;6042;41.326;19.826;2023-06-04T11:05:35;3.35;;;2.70;;
11964;SDS011;6042;41.326;19.826;2023-06-04T11:08:04;3.47;;;3.17;;
11964;SDS011;6042;41.326;19.826;2023-06-04T11:10:34;2.78;;;2.58;;
11964;SDS011;6042;41.326;19.826;2023-06-04T11:13:03;3.67;;;3.38;;
11964;SDS011;6042;41.326;19.826;2023-06-04T11:15:39;3.80;;;3.45;;
11964;SDS011;6042;41.326;19.826;2023-06-04T11:18:14;3.85;;;3.08;;
11964;SDS011;6042;41.326;19.826;2023-06-04T11:20:43;3.78;;;3.10;;
11964;SDS011;6042;41.326;19.826;2023-06-04T11:23:12;10.95;;;4.80;;
11964;SDS011;6042;41.326;19.826;2023-06-04T11:25:42;10.68;;;5.72;;
11964;SDS011;6042;41.326;19.826;2023-06-04T11:28:14;6.28;;;5.10;;
11964;SDS011;6042;41.326;19.826;2023-06-04T11:30:55;7.68;;;5.80;;
11964;SDS011;6042;41.326;19.826;2023-06-04T11:33:26;7.47;;;5.85;;
11964;SDS011;6042;41.326;19.826;2023-06-04T11:35:55;8.30;;;5.40;;
11964;SDS011;6042;41.326;19.826;2023-06-04T11:38:23;7.23;;;5.47;;
11964;SDS011;6042;41.326;19.826;2023-06-04T11:40:56;6.32;;;5.10;;
11964;SDS011;6042;41.326;19.826;2023-06-04T11:43:26;6.47;;;5.83;;
11964;SDS011;6042;41.326;19.826;2023-06-04T11:45:58;5.72;;;5.22;;
11964;SDS011;6042;41.326;19.826;2023-06-04T11:48:38;8.30;;;5.90;;
11964;SDS011;6042;41.326;19.826;2023-06-04T11:51:07;8.13;;;6.40;;
11964;SDS011;6042;41.326;19.826;2023-06-04T11:53:36;9.93;;;5.87;;
11964;SDS011;6042;41.326;19.826;2023-06-04T11:56:05;7.23;;;6.00;;
11964;SDS011;6042;41.326;19.826;2023-06-04T11:58:34;6.73;;;6.10;;
11964;SDS011;6042;41.326;19.826;2023-06-04T12:01:03;7.63;;;6.40;;
11964;SDS011;6042;41.326;19.826;2023-06-04T12:03:36;7.03;;;6.13;;
11964;SDS011;6042;41.326;19.826;2023-06-04T12:06:10;7.00;;;6.30;;
11964;SDS011;6042;41.326;19.826;2023-06-04T12:08:50;7.80;;;6.27;;
11964;SDS011;6042;41.326;19.826;2023-06-04T12:11:26;7.60;;;6.43;;
11964;SDS011;6042;41.326;19.826;2023-06-04T12:13:58;11.80;;;6.07;;
11964;SDS011;6042;41.326;19.826;2023-06-04T12:16:27;5.80;;;5.30;;
11964;SDS011;6042;41.326;19.826;2023-06-04T12:21:44;8.83;;;6.13;;
11964;SDS011;6042;41.326;19.826;2023-06-04T12:24:14;5.60;;;4.80;;
11964;SDS011;6042;41.326;19.826;2023-06-04T12:26:42;6.87;;;5.00;;
11964;SDS011;6042;41.326;19.826;2023-06-04T12:29:15;5.50;;;4.67;;
11964;SDS011;6042;41.326;19.826;2023-06-04T12:31:46;6.50;;;4.63;;
11964;SDS011;6042;41.326;19.826;2023-06-04T12:34:15;4.90;;;3.83;;
11964;SDS011;6042;41.326;19.826;2023-06-04T12:36:45;7.53;;;4.63;;
11964;SDS011;6042;41.326;19.826;2023-06-04T12:39:15;5.27;;;4.27;;
11964;SDS011;6042;41.326;19.826;2023-06-04T12:41:44;4.20;;;3.77;;
11964;SDS011;6042;41.326;19.826;2023-06-04T12:44:13;6.03;;;4.10;;
11964;SDS011;6042;41.326;19.826;2023-06-04T12:46:42;4.30;;;3.90;;
11964;SDS011;6042;41.326;19.826;2023-06-04T12:49:11;4.83;;;4.33;;
11964;SDS011;6042;41.326;19.826;2023-06-04T12:51:39;4.60;;;4.20;;
11964;SDS011;6042;41.326;19.826;2023-06-04T12:54:12;5.45;;;4.10;;
11964;SDS011;6042;41.326;19.826;2023-06-04T12:56:40;4.95;;;4.05;;
11964;SDS011;6042;41.326;19.826;2023-06-04T12:59:11;4.72;;;3.63;;
11964;SDS011;6042;41.326;19.826;2023-06-04T13:01:43;4.53;;;3.67;;
11964;SDS011;6042;41.326;19.826;2023-06-04T13:04:14;6.30;;;3.50;;
11964;SDS011;6042;41.326;19.826;2023-06-04T13:06:42;4.35;;;3.80;;
11964;SDS011;6042;41.326;19.826;2023-06-04T13:09:13;4.32;;;3.90;;
11964;SDS011;6042;41.326;19.826;2023-06-04T13:11:42;3.80;;;3.45;;
11964;SDS011;6042;41.326;19.826;2023-06-04T13:14:12;3.80;;;3.50;;
11964;SDS011;6042;41.326;19.826;2023-06-04T13:16:40;6.10;;;4.43;;
11964;SDS011;6042;41.326;19.826;2023-06-04T13:19:09;5.38;;;4.57;;
11964;SDS011;6042;41.326;19.826;2023-06-04T13:21:38;5.63;;;4.60;;
11964;SDS011;6042;41.326;19.826;2023-06-04T13:24:06;4.70;;;4.07;;
11964;SDS011;6042;41.326;19.826;2023-06-04T13:26:39;4.30;;;3.90;;
11964;SDS011;6042;41.326;19.826;2023-06-04T13:29:08;4.43;;;4.05;;
11964;SDS011;6042;41.326;19.826;2023-06-04T13:31:37;4.88;;;3.15;;
11964;SDS011;6042;41.326;19.826;2023-06-04T13:34:07;4.50;;;3.85;;
11964;SDS011;6042;41.326;19.826;2023-06-04T13:36:53;3.92;;;3.00;;
11964;SDS011;6042;41.326;19.826;2023-06-04T13:39:22;6.20;;;3.38;;
11964;SDS011;6042;41.326;19.826;2023-06-04T13:41:52;7.07;;;3.15;;
11964;SDS011;6042;41.326;19.826;2023-06-04T13:44:21;3.78;;;3.20;;
11964;SDS011;6042;41.326;19.826;2023-06-04T13:46:52;7.85;;;3.40;;
11964;SDS011;6042;41.326;19.826;2023-06-04T13:49:21;4.93;;;3.55;;
11964;SDS011;6042;41.326;19.826;2023-06-04T13:51:49;3.42;;;2.15;;
11964;SDS011;6042;41.326;19.826;2023-06-04T13:54:18;4.60;;;2.53;;
11964;SDS011;6042;41.326;19.826;2023-06-04T13:56:47;2.85;;;2.10;;
11964;SDS011;6042;41.326;19.826;2023-06-04T13:59:17;1.88;;;1.77;;
11964;SDS011;6042;41.326;19.826;2023-06-04T14:01:46;2.65;;;1.58;;
11964;SDS011;6042;41.326;19.826;2023-06-04T14:04:14;2.57;;;2.10;;
11964;SDS011;6042;41.326;19.826;2023-06-04T14:06:43;4.33;;;3.50;;
11964;SDS011;6042;41.326;19.826;2023-06-04T14:09:13;5.47;;;3.07;;
11964;SDS011;6042;41.326;19.826;2023-06-04T14:11:42;4.27;;;2.97;;
11964;SDS011;6042;41.326;19.826;2023-06-04T14:14:14;5.00;;;3.47;;
11964;SDS011;6042;41.326;19.826;2023-06-04T14:16:45;3.47;;;2.50;;
11964;SDS011;6042;41.326;19.826;2023-06-04T14:19:14;3.30;;;3.00;;
11964;SDS011;6042;41.326;19.826;2023-06-04T14:21:43;3.90;;;2.50;;
11964;SDS011;6042;41.326;19.826;2023-06-04T14:24:11;5.18;;;2.40;;
11964;SDS011;6042;41.326;19.826;2023-06-04T14:26:40;5.95;;;2.22;;
11964;SDS011;6042;41.326;19.826;2023-06-04T14:29:08;2.78;;;2.33;;
11964;SDS011;6042;41.326;19.826;2023-06-04T14:31:37;4.10;;;2.53;;
11964;SDS011;6042;41.326;19.826;2023-06-04T14:34:07;2.47;;;2.17;;
11964;SDS011;6042;41.326;19.826;2023-06-04T14:36:37;3.33;;;2.95;;
11964;SDS011;6042;41.326;19.826;2023-06-04T14:39:05;2.78;;;2.53;;
11964;SDS011;6042;41.326;19.826;2023-06-04T14:41:34;4.22;;;3.83;;
11964;SDS011;6042;41.326;19.826;2023-06-04T14:44:02;3.85;;;2.42;;
11964;SDS011;6042;41.326;19.826;2023-06-04T14:46:31;2.25;;;2.05;;
11964;SDS011;6042;41.326;19.826;2023-06-04T14:48:59;5.07;;;3.28;;
11964;SDS011;6042;41.326;19.826;2023-06-04T14:51:29;2.90;;;2.70;;
11964;SDS011;6042;41.326;19.826;2023-06-04T14:53:58;4.53;;;2.83;;
11964;SDS011;6042;41.326;19.826;2023-06-04T14:56:27;5.75;;;2.80;;
11964;SDS011;6042;41.326;19.826;2023-06-04T14:58:56;2.33;;;2.05;;
11964;SDS011;6042;41.326;19.826;2023-06-04T15:01:25;3.20;;;2.90;;
11964;SDS011;6042;41.326;19.826;2023-06-04T15:03:54;4.43;;;2.42;;
11964;SDS011;6042;41.326;19.826;2023-06-04T15:06:22;3.20;;;2.90;;
11964;SDS011;6042;41.326;19.826;2023-06-04T15:08:52;4.72;;;2.72;;
11964;SDS011;6042;41.326;19.826;2023-06-04T15:11:20;4.20;;;2.58;;
11964;SDS011;6042;41.326;19.826;2023-06-04T15:13:49;4.00;;;3.60;;
11964;SDS011;6042;41.326;19.826;2023-06-04T15:16:17;4.75;;;2.90;;
11964;SDS011;6042;41.326;19.826;2023-06-04T15:18:46;5.88;;;3.30;;
11964;SDS011;6042;41.326;19.826;2023-06-04T15:21:15;2.72;;;2.53;;
11964;SDS011;6042;41.326;19.826;2023-06-04T15:23:44;4.22;;;3.10;;